Time;durP1;ratioP1;P1;durP2;ratioP2;P2;SDS_P1;SDS_P2;PMS_P1;PMS_P2;Temp;Humidity;BMP_temperature;BMP_pressure;BME280_temperature;BME280_humidity;BME280_pressure;Samples;Min_cycle;Max_cycle;Signal;HPM_P1;HPM_P2
2023/07/16 00:01:54;;;;;;;6.93;3.47;;;;;;;;;;4903273;29;20102;-76
2023/07/16 00:04:15;;;;;;;3.72;2.70;;;;;;;;;;4948332;28;20027;-76
2023/07/16 00:06:49;;;;;;;5.07;3.53;;;;;;;;;;4941287;29;20039;-77
2023/07/16 00:09:15;;;;;;;6.53;3.55;;;;;;;;;;4948347;29;20279;-77
2023/07/16 00:11:44;;;;;;;9.10;3.58;;;;;;;;;;4941515;28;20071;-77
2023/07/16 00:14:12;;;;;;;7.78;3.83;;;;;;;;;;4939994;29;20024;-77
2023/07/16 00:16:38;;;;;;;10.60;3.65;;;;;;;;;;4932945;29;20031;-76
2023/07/16 00:19:04;;;;;;;7.25;3.42;;;;;;;;;;4941134;29;20047;-77
2023/07/16 00:21:30;;;;;;;10.25;4.10;;;;;;;;;;4945153;29;20026;-77
2023/07/16 00:23:57;;;;;;;5.50;2.80;;;;;;;;;;4934148;29;20020;-77
2023/07/16 00:26:25;;;;;;;8.77;3.60;;;;;;;;;;4934185;29;20192;-77
2023/07/16 00:28:54;;;;;;;8.57;3.20;;;;;;;;;;4933211;29;20019;-77
2023/07/16 00:31:20;;;;;;;4.65;3.30;;;;;;;;;;4943391;29;20020;-77
2023/07/16 00:33:46;;;;;;;9.48;2.85;;;;;;;;;;4943817;28;20023;-76
2023/07/16 00:36:17;;;;;;;7.80;3.35;;;;;;;;;;4945447;28;20078;-76
2023/07/16 00:38:45;;;;;;;6.28;3.30;;;;;;;;;;4940877;29;20082;-76
2023/07/16 00:41:11;;;;;;;3.75;2.75;;;;;;;;;;4942129;29;20016;-76
2023/07/16 00:43:37;;;;;;;6.25;3.25;;;;;;;;;;4932774;29;20459;-76
2023/07/16 00:46:06;;;;;;;7.07;3.85;;;;;;;;;;4933692;29;20115;-76
2023/07/16 00:48:32;;;;;;;6.65;3.05;;;;;;;;;;4939793;29;20114;-77
2023/07/16 00:51:03;;;;;;;4.20;3.13;;;;;;;;;;4942714;29;20023;-77
2023/07/16 00:53:30;;;;;;;6.80;3.22;;;;;;;;;;4935304;29;20122;-77
2023/07/16 00:55:58;;;;;;;7.20;3.00;;;;;;;;;;4934113;29;20028;-78
2023/07/16 00:58:24;;;;;;;9.13;3.10;;;;;;;;;;4935723;29;20403;-77
2023/07/16 01:00:53;;;;;;;6.57;3.35;;;;;;;;;;4943444;29;20380;-77
2023/07/16 01:03:19;;;;;;;9.95;3.25;;;;;;;;;;4936029;29;20028;-78
2023/07/16 01:06:04;;;;;;;4.97;3.05;;;;;;;;;;4934545;29;20046;-78
2023/07/16 01:08:42;;;;;;;5.45;2.67;;;;;;;;;;4925601;29;20021;-77
2023/07/16 01:11:11;;;;;;;3.65;2.50;;;;;;;;;;4935272;29;20066;-78
2023/07/16 01:13:37;;;;;;;3.58;2.63;;;;;;;;;;4943049;29;20066;-78
2023/07/16 01:16:03;;;;;;;6.30;2.92;;;;;;;;;;4937347;28;20150;-78
2023/07/16 01:18:30;;;;;;;4.85;2.70;;;;;;;;;;4937718;29;20019;-78
2023/07/16 01:20:58;;;;;;;6.65;2.80;;;;;;;;;;4944336;28;20027;-78
2023/07/16 01:23:38;;;;;;;6.43;2.92;;;;;;;;;;4943416;28;20031;-78
2023/07/16 01:26:07;;;;;;;12.35;3.08;;;;;;;;;;4950572;28;20031;-77
2023/07/16 01:28:56;;;;;;;3.03;2.70;;;;;;;;;;4941743;29;20499;-78
2023/07/16 01:31:25;;;;;;;2.63;2.17;;;;;;;;;;4948253;29;20035;-78
2023/07/16 01:33:52;;;;;;;4.43;2.78;;;;;;;;;;4940976;29;20020;-78
2023/07/16 01:36:21;;;;;;;4.07;2.95;;;;;;;;;;4959249;29;20032;-77
2023/07/16 01:38:47;;;;;;;5.97;2.70;;;;;;;;;;4940803;29;20379;-78
2023/07/16 01:41:14;;;;;;;3.75;2.25;;;;;;;;;;4946865;28;20428;-78
2023/07/16 01:43:42;;;;;;;4.15;2.83;;;;;;;;;;4947614;28;20035;-77
2023/07/16 01:46:15;;;;;;;2.63;2.13;;;;;;;;;;4943112;28;20445;-77
2023/07/16 01:48:42;;;;;;;5.63;2.35;;;;;;;;;;4941659;29;20555;-78
2023/07/16 01:51:08;;;;;;;2.35;1.70;;;;;;;;;;4948375;28;20411;-77
2023/07/16 01:53:39;;;;;;;2.42;2.17;;;;;;;;;;4947296;29;20099;-78
2023/07/16 01:56:05;;;;;;;;;;;;;;;;;;4960868;29;20500;-79
2023/07/16 01:58:52;;;;;;;2.35;1.98;;;;;;;;;;4946778;28;19907;-80
2023/07/16 02:01:25;;;;;;;5.93;2.15;;;;;;;;;;4933644;29;20480;-80
2023/07/16 02:04:12;;;;;;;2.75;2.15;;;;;;;;;;4938981;29;20031;-79
2023/07/16 02:06:41;;;;;;;2.05;1.80;;;;;;;;;;4955426;29;20036;-80
2023/07/16 02:09:22;;;;;;;6.28;1.92;;;;;;;;;;4950485;28;20038;-77
2023/07/16 02:12:01;;;;;;;1.70;1.60;;;;;;;;;;4942720;29;20130;-77
2023/07/16 02:14:33;;;;;;;3.03;2.25;;;;;;;;;;4952884;28;20027;-77
2023/07/16 02:17:06;;;;;;;3.50;1.90;;;;;;;;;;4960555;28;20059;-77
2023/07/16 02:19:32;;;;;;;5.68;2.10;;;;;;;;;;4958899;29;20020;-77
2023/07/16 02:22:04;;;;;;;3.38;1.83;;;;;;;;;;4962581;29;20024;-77
2023/07/16 02:24:36;;;;;;;3.88;2.20;;;;;;;;;;4958547;29;20066;-77
2023/07/16 02:27:02;;;;;;;6.30;2.50;;;;;;;;;;4971821;29;20039;-76
2023/07/16 02:29:28;;;;;;;3.28;2.00;;;;;;;;;;4956861;29;20495;-79
2023/07/16 02:31:54;;;;;;;3.60;2.22;;;;;;;;;;4951641;29;20034;-78
2023/07/16 02:34:21;;;;;;;2.85;1.73;;;;;;;;;;4955797;28;20026;-78
2023/07/16 02:36:55;;;;;;;4.18;1.90;;;;;;;;;;4949875;28;20056;-78
2023/07/16 02:39:21;;;;;;;3.33;1.90;;;;;;;;;;4940856;29;20024;-79
2023/07/16 02:41:47;;;;;;;3.17;2.22;;;;;;;;;;4934850;29;20031;-79
2023/07/16 02:44:27;;;;;;;4.72;2.17;;;;;;;;;;4947237;29;20052;-79
2023/07/16 02:46:53;;;;;;;4.53;2.35;;;;;;;;;;4937509;29;20095;-77
2023/07/16 02:49:21;;;;;;;3.55;1.60;;;;;;;;;;4934545;29;20023;-77
2023/07/16 02:51:47;;;;;;;9.65;2.25;;;;;;;;;;4952394;28;20027;-77
2023/07/16 02:54:17;;;;;;;9.63;3.45;;;;;;;;;;4945977;28;20106;-78
2023/07/16 02:56:43;;;;;;;16.00;6.32;;;;;;;;;;4939489;29;20695;-78
2023/07/16 02:59:09;;;;;;;9.93;4.75;;;;;;;;;;4930893;29;20028;-78
2023/07/16 03:01:35;;;;;;;5.47;2.75;;;;;;;;;;4935522;29;20036;-79
2023/07/16 03:04:01;;;;;;;7.40;2.47;;;;;;;;;;4939233;29;20031;-78
2023/07/16 03:06:27;;;;;;;3.25;2.35;;;;;;;;;;4935646;29;20028;-79
2023/07/16 03:08:53;;;;;;;4.90;3.15;;;;;;;;;;4933965;29;20067;-79
2023/07/16 03:11:19;;;;;;;5.63;2.75;;;;;;;;;;4939791;29;20159;-78
2023/07/16 03:13:45;;;;;;;4.63;2.58;;;;;;;;;;4943303;29;20019;-78
2023/07/16 03:16:11;;;;;;;8.63;3.20;;;;;;;;;;4937424;29;20504;-77
2023/07/16 03:18:37;;;;;;;12.23;3.17;;;;;;;;;;4946163;29;20035;-77
2023/07/16 03:21:03;;;;;;;4.68;2.22;;;;;;;;;;4953039;29;20027;-78
2023/07/16 03:23:29;;;;;;;6.85;2.95;;;;;;;;;;4935752;29;20036;-78
2023/07/16 03:25:55;;;;;;;5.35;2.42;;;;;;;;;;4951235;29;20406;-78
2023/07/16 03:28:21;;;;;;;7.20;2.22;;;;;;;;;;4932034;29;20372;-77
2023/07/16 03:30:48;;;;;;;4.50;2.55;;;;;;;;;;4935181;29;20023;-76
2023/07/16 03:33:14;;;;;;;3.65;2.40;;;;;;;;;;4932702;29;20027;-77
2023/07/16 03:35:42;;;;;;;5.45;2.63;;;;;;;;;;4933705;29;20031;-77
2023/07/16 03:38:08;;;;;;;4.32;2.33;;;;;;;;;;4933854;29;20586;-76
2023/07/16 03:40:35;;;;;;;4.57;3.17;;;;;;;;;;4935338;29;20118;-78
2023/07/16 03:43:01;;;;;;;7.43;3.15;;;;;;;;;;4945662;29;20054;-78
2023/07/16 03:45:27;;;;;;;3.25;2.70;;;;;;;;;;4937624;29;20036;-77
2023/07/16 03:47:53;;;;;;;6.35;3.40;;;;;;;;;;4936617;29;20085;-77
2023/07/16 03:50:19;;;;;;;6.93;3.90;;;;;;;;;;4932681;29;20019;-79
2023/07/16 03:52:45;;;;;;;6.10;2.80;;;;;;;;;;4937209;29;20028;-76
2023/07/16 03:55:11;;;;;;;4.88;3.50;;;;;;;;;;4934880;29;20027;-77
2023/07/16 03:57:37;;;;;;;4.65;3.10;;;;;;;;;;4952014;29;20031;-77
2023/07/16 04:00:06;;;;;;;8.20;3.83;;;;;;;;;;4938142;29;20020;-77
2023/07/16 04:02:32;;;;;;;5.80;3.05;;;;;;;;;;4943225;29;20402;-77
2023/07/16 04:04:58;;;;;;;4.53;2.92;;;;;;;;;;4945867;29;20043;-77
2023/07/16 04:07:24;;;;;;;4.72;3.03;;;;;;;;;;4947658;28;20022;-77
2023/07/16 04:09:50;;;;;;;4.07;3.22;;;;;;;;;;4935127;28;20053;-77
2023/07/16 04:12:16;;;;;;;6.70;3.63;;;;;;;;;;4934012;29;20024;-77
2023/07/16 04:14:42;;;;;;;7.65;3.80;;;;;;;;;;4932360;29;20024;-77
2023/07/16 04:17:08;;;;;;;4.88;3.38;;;;;;;;;;4933809;29;20444;-77
2023/07/16 04:19:34;;;;;;;5.55;3.60;;;;;;;;;;4937709;29;20042;-77
2023/07/16 04:22:00;;;;;;;5.97;3.13;;;;;;;;;;4929647;29;20023;-78
2023/07/16 04:24:26;;;;;;;5.43;3.28;;;;;;;;;;4938298;29;20106;-78
2023/07/16 04:26:53;;;;;;;4.03;2.92;;;;;;;;;;4930845;29;20043;-77
2023/07/16 04:29:19;;;;;;;3.63;3.03;;;;;;;;;;4930893;29;20130;-77
2023/07/16 04:31:45;;;;;;;4.22;3.08;;;;;;;;;;4933860;29;20447;-78
2023/07/16 04:34:11;;;;;;;4.22;2.60;;;;;;;;;;4932925;29;20451;-78
2023/07/16 04:36:37;;;;;;;3.63;3.13;;;;;;;;;;4942227;29;20028;-78
2023/07/16 04:39:04;;;;;;;4.85;3.13;;;;;;;;;;4934837;28;20035;-77
2023/07/16 04:41:30;;;;;;;3.30;2.88;;;;;;;;;;4934939;29;20067;-77
2023/07/16 04:43:56;;;;;;;4.18;2.53;;;;;;;;;;4933417;29;20031;-77
2023/07/16 04:46:22;;;;;;;2.38;2.17;;;;;;;;;;4934636;29;20031;-77
2023/07/16 04:48:48;;;;;;;2.60;2.40;;;;;;;;;;4934572;29;20082;-76
2023/07/16 04:51:14;;;;;;;3.63;2.90;;;;;;;;;;4935108;29;20038;-77
2023/07/16 04:53:40;;;;;;;2.75;2.55;;;;;;;;;;4930786;29;20027;-77
2023/07/16 04:56:12;;;;;;;2.95;2.35;;;;;;;;;;4930682;29;20035;-77
2023/07/16 04:58:38;;;;;;;2.20;2.00;;;;;;;;;;4940237;29;20044;-77
2023/07/16 05:01:04;;;;;;;41.22;27.17;;;;;;;;;;4940182;29;20023;-76
2023/07/16 05:03:30;;;;;;;3.20;2.25;;;;;;;;;;4932425;29;20095;-77
2023/07/16 05:05:57;;;;;;;2.30;1.83;;;;;;;;;;4936308;29;20574;-77
2023/07/16 05:11:47;;;;;;;1.88;1.33;;;;;;;;;;4872004;29;20762;-77
2023/07/16 05:14:22;;;;;;;3.40;1.40;;;;;;;;;;4932787;29;20035;-77
2023/07/16 05:26:18;;;;;;;23.42;2.08;;;;;;;;;;4942159;29;20043;-77
2023/07/16 05:28:47;;;;;;;2.03;1.83;;;;;;;;;;4873491;29;20062;-76
2023/07/16 05:31:37;;;;;;;1.67;1.58;;;;;;;;;;4930225;29;20049;-76
2023/07/16 05:34:14;;;;;;;3.95;1.83;;;;;;;;;;4919000;29;20124;-78
2023/07/16 05:36:48;;;;;;;3.92;1.80;;;;;;;;;;4921223;29;20124;-76
2023/07/16 05:39:18;;;;;;;1.50;1.40;;;;;;;;;;4923402;29;20038;-76
2023/07/16 05:41:55;;;;;;;2.45;1.67;;;;;;;;;;4917290;29;20381;-77
2023/07/16 05:44:32;;;;;;;3.03;1.98;;;;;;;;;;4919680;29;20127;-76
2023/07/16 05:47:01;;;;;;;6.50;4.47;;;;;;;;;;4917480;29;20073;-77
2023/07/16 05:49:27;;;;;;;2.97;1.80;;;;;;;;;;4920689;29;20510;-77
2023/07/16 05:51:54;;;;;;;2.08;1.80;;;;;;;;;;4917427;29;20047;-76
2023/07/16 05:54:29;;;;;;;2.28;1.77;;;;;;;;;;4915421;29;20035;-77
2023/07/16 05:56:55;;;;;;;2.88;1.92;;;;;;;;;;4916596;29;20026;-77
2023/07/16 05:59:21;;;;;;;4.63;1.90;;;;;;;;;;4922487;29;20032;-77
2023/07/16 06:01:47;;;;;;;2.03;1.75;;;;;;;;;;4915041;29;20407;-78
2023/07/16 06:04:13;;;;;;;3.35;1.60;;;;;;;;;;4924745;29;20052;-78
2023/07/16 06:06:39;;;;;;;2.17;1.23;;;;;;;;;;4920692;29;20035;-78
2023/07/16 06:09:05;;;;;;;4.15;1.30;;;;;;;;;;4925705;29;20084;-78
2023/07/16 06:11:34;;;;;;;2.00;1.20;;;;;;;;;;4930414;29;20433;-79
2023/07/16 06:14:05;;;;;;;1.50;0.90;;;;;;;;;;4921656;29;20024;-78
2023/07/16 06:16:31;;;;;;;;;;;;;;;;;;4921942;29;20036;-78
2023/07/16 06:18:59;;;;;;;1.48;1.00;;;;;;;;;;4918108;29;19971;-78
2023/07/16 06:21:25;;;;;;;2.15;1.38;;;;;;;;;;4932739;23;20058;-78
2023/07/16 06:23:51;;;;;;;2.53;1.13;;;34.00;45.20;;;;;;4967873;28;20031;-78
2023/07/16 06:26:17;;;;;;;1.70;1.02;;;32.00;49.40;;;;;;4969015;28;20030;-78
2023/07/16 06:28:43;;;;;;;2.65;0.90;;;29.80;55.50;;;;;;4962752;28;20035;-78
2023/07/16 06:31:09;;;;;;;2.92;1.00;;;30.00;56.10;;;;;;4966129;28;20031;-78
2023/07/16 06:33:41;;;;;;;1.20;1.02;;;31.20;53.40;;;;;;4963275;28;20036;-78
2023/07/16 06:36:06;;;;;;;4.38;1.23;;;32.50;50.00;;;;;;4964370;28;20046;-78
2023/07/16 06:38:32;;;;;;;1.67;1.25;;;33.20;45.90;;;;;;4957428;28;20050;-78
2023/07/16 06:43:32;;;;;;;3.50;1.20;;;31.80;50.00;;;;;;4966042;23;20122;-77
2023/07/16 06:45:57;;;;;;;1.38;0.80;;;33.00;45.50;;;;;;4934922;29;20062;-77
2023/07/16 06:48:23;;;;;;;3.33;1.23;;;33.30;44.70;;;;;;4924480;29;20024;-77
2023/07/16 06:50:52;;;;;;;1.35;1.25;;;32.30;46.60;;;;;;4945200;29;20031;-78
2023/07/16 06:53:21;;;;;;;0.90;0.90;;;31.10;48.80;;;;;;4942312;29;20035;-78
2023/07/16 06:55:48;;;;;;;1.95;1.05;;;;;;;;;;4945526;29;20031;-78
2023/07/16 06:58:15;;;;;;;1.33;1.20;;;;;;;;;;4959626;28;20015;-78
2023/07/16 07:00:41;;;;;;;4.57;1.10;;;;;;;;;;4956859;29;20039;-77
2023/07/16 07:03:07;;;;;;;3.88;0.98;;;;;;;;;;4949017;28;20032;-78
2023/07/16 07:05:35;;;;;;;2.55;1.30;;;;;;;;;;4935029;29;20019;-78
2023/07/16 07:08:01;;;;;;;1.58;1.15;;;;;;;;;;4948663;29;20046;-77
2023/07/16 07:10:27;;;;;;;1.77;1.20;;;;;;;;;;4947657;29;20036;-77
2023/07/16 07:12:53;;;;;;;0.98;0.90;;;;;;;;;;4949644;29;20023;-78
2023/07/16 07:15:20;;;;;;;1.73;1.33;;;;;;;;;;4959253;28;20031;-78
2023/07/16 07:17:46;;;;;;;1.20;0.82;;;;;;;;;;4960773;28;20431;-78
2023/07/16 07:20:15;;;;;;;0.95;0.77;;;;;;;;;;4957232;28;20582;-78
2023/07/16 07:22:41;;;;;;;1.55;0.98;;;;;;;;;;4952405;29;20059;-78
2023/07/16 07:25:07;;;;;;;1.65;0.88;;;;;;;;;;4942926;28;20031;-77
2023/07/16 07:27:36;;;;;;;1.30;1.08;;;;;;;;;;4938483;29;20024;-77
2023/07/16 07:30:05;;;;;;;3.03;1.00;;;;;;;;;;4946276;28;20031;-79
2023/07/16 07:32:31;;;;;;;1.35;1.08;;;;;;;;;;4938601;29;20591;-78
2023/07/16 07:34:57;;;;;;;1.52;0.93;;;;;;;;;;4945190;28;20036;-78
2023/07/16 07:37:23;;;;;;;1.92;1.35;;;;;;;;;;4945177;29;20031;-80
2023/07/16 07:39:53;;;;;;;1.23;1.00;;;;;;;;;;4949189;28;20034;-77
2023/07/16 07:42:19;;;;;;;1.40;1.17;;;;;;;;;;4931042;29;20032;-77
2023/07/16 07:44:47;;;;;;;3.45;1.35;;;;;;;;;;4926714;29;20559;-78
2023/07/16 07:47:16;;;;;;;2.58;1.35;;;;;;;;;;4934903;28;20499;-77
2023/07/16 07:49:54;;;;;;;2.97;1.30;;;;;;;;;;4943915;29;20039;-77
2023/07/16 07:52:23;;;;;;;2.78;1.30;;;;;;;;;;4932485;29;20106;-77
2023/07/16 07:55:10;;;;;;;3.83;1.40;;;;;;;;;;4933241;29;20554;-76
2023/07/16 07:57:41;;;;;;;2.22;1.30;;;;;;;;;;4934187;29;20023;-75
2023/07/16 08:00:11;;;;;;;1.95;1.27;;;;;;;;;;4929937;28;20039;-75
2023/07/16 08:02:38;;;;;;;2.40;1.23;;;;;;;;;;4924995;29;20051;-76
2023/07/16 08:05:04;;;;;;;2.95;1.40;;;;;;;;;;4925188;29;20063;-77
2023/07/16 08:07:30;;;;;;;3.05;1.67;;;;;;;;;;4928729;29;20038;-77
2023/07/16 08:09:56;;;;;;;5.13;1.92;;;;;;;;;;4929396;29;20023;-77
2023/07/16 08:12:22;;;;;;;3.97;1.73;;;;;;;;;;4934105;29;20032;-76
2023/07/16 08:14:49;;;;;;;2.28;1.20;;;;;;;;;;4931022;28;20027;-76
2023/07/16 08:17:15;;;;;;;5.78;1.67;;;;;;;;;;4934806;29;20043;-76
2023/07/16 08:19:41;;;;;;;2.50;1.73;;;;;;;;;;4917325;29;20119;-77
2023/07/16 08:22:07;;;;;;;3.65;1.67;;;;;;;;;;4921747;29;20111;-77
2023/07/16 08:24:35;;;;;;;2.15;1.60;;;;;;;;;;4923466;29;20528;-77
2023/07/16 08:27:01;;;;;;;3.50;1.38;;;;;;;;;;4934865;28;20024;-77
2023/07/16 08:29:27;;;;;;;2.33;1.50;;;;;;;;;;4935188;29;20046;-77
2023/07/16 08:31:53;;;;;;;2.10;1.60;;;;;;;;;;4928376;29;20038;-77
2023/07/16 08:34:19;;;;;;;9.68;1.67;;;;;;;;;;4939001;29;20023;-77
2023/07/16 08:36:45;;;;;;;3.80;1.90;;;;;;;;;;4931427;29;20074;-77
2023/07/16 08:39:12;;;;;;;3.50;1.83;;;;;;;;;;4938976;28;20034;-77
2023/07/16 08:41:39;;;;;;;4.38;1.60;;;;;;;;;;4933236;29;20063;-78
2023/07/16 08:44:05;;;;;;;2.67;1.52;;;;;;;;;;4926765;29;20039;-78
2023/07/16 08:46:31;;;;;;;1.45;1.27;;;;;;;;;;4932044;29;20095;-77
2023/07/16 08:48:57;;;;;;;4.75;1.35;;;;;;;;;;4930467;29;20020;-78
2023/07/16 08:51:24;;;;;;;3.05;1.70;;;;;;;;;;4929773;29;20107;-77
2023/07/16 08:53:50;;;;;;;3.00;1.67;;;;;;;;;;4928407;29;20032;-77
2023/07/16 08:56:24;;;;;;;5.15;1.73;;;;;;;;;;4936363;29;20027;-77
2023/07/16 08:58:58;;;;;;;4.30;1.90;;;;;;;;;;4940764;28;20074;-78
2023/07/16 09:01:32;;;;;;;3.08;1.73;;;;;;;;;;4939484;29;20034;-78
2023/07/16 09:04:06;;;;;;;4.43;1.52;;;;;;;;;;4932048;29;20031;-78
2023/07/16 09:06:35;;;;;;;3.08;1.30;;;;;;;;;;4946689;29;20093;-78
2023/07/16 09:09:15;;;;;;;2.58;1.60;;;;;;;;;;4940403;29;20418;-78
2023/07/16 09:11:47;;;;;;;5.90;1.67;;;;;;;;;;4948361;29;20506;-78
2023/07/16 09:14:15;;;;;;;4.20;1.90;;;;;;;;;;4942333;29;20109;-79
2023/07/16 09:16:44;;;;;;;4.05;1.83;;;;;;;;;;4944633;29;20032;-78
2023/07/16 09:19:18;;;;;;;5.05;1.60;;;;;;;;;;4950732;28;20024;-78
2023/07/16 09:21:54;;;;;;;1.77;1.42;;;;;;;;;;4942296;29;20035;-78
2023/07/16 09:24:23;;;;;;;2.03;1.30;;;;;;;;;;4934566;29;20099;-78
2023/07/16 09:26:54;;;;;;;4.72;1.80;;;;;;;;;;4950055;29;20046;-78
2023/07/16 09:29:21;;;;;;;3.38;1.70;;;;;;;;;;4942855;29;20034;-78
2023/07/16 09:31:58;;;;;;;4.75;1.70;;;;;;;;;;4945182;28;20483;-78
2023/07/16 09:34:30;;;;;;;2.15;1.40;;;;;;;;;;4946705;29;20029;-78
2023/07/16 09:36:59;;;;;;;4.60;1.98;;;;;;;;;;4944679;29;20038;-78
2023/07/16 09:39:26;;;;;;;2.73;1.73;;;;;;;;;;4950048;29;20028;-78
2023/07/16 09:41:53;;;;;;;3.10;1.45;;;;;;;;;;4945239;28;20031;-78
2023/07/16 09:44:22;;;;;;;3.75;1.67;;;;;;;;;;4947813;28;20028;-78
2023/07/16 09:46:49;;;;;;;1.77;1.52;;;;;;;;;;4949688;28;20027;-78
2023/07/16 09:49:18;;;;;;;4.07;1.60;;;;;;;;;;4949157;29;20024;-78
2023/07/16 09:51:47;;;;;;;4.80;1.77;;;;;;;;;;4946879;28;20024;-78
2023/07/16 09:54:17;;;;;;;2.85;1.42;;;;;;;;;;4936180;29;20055;-78
2023/07/16 09:56:46;;;;;;;3.17;1.50;;;;;;;;;;4942033;29;20133;-78
2023/07/16 09:59:14;;;;;;;3.65;1.42;;;;;;;;;;4950217;29;20027;-78
2023/07/16 10:01:40;;;;;;;4.88;2.03;;;;;;;;;;4942278;28;20028;-77
2023/07/16 10:04:27;;;;;;;3.05;1.85;;;;;;;;;;4957406;28;20034;-78
2023/07/16 10:06:54;;;;;;;3.67;1.50;;;;;;;;;;4934776;29;20074;-78
2023/07/16 10:09:37;;;;;;;3.40;1.55;;;;;;;;;;4952925;28;20047;-78
2023/07/16 10:12:16;;;;;;;3.40;1.55;;;;;;;;;;4962059;28;20075;-78
2023/07/16 10:14:46;;;;;;;5.18;2.00;;;;;;;;;;4957002;28;20102;-78
2023/07/16 10:17:19;;;;;;;4.65;2.17;;;;;;;;;;4944357;29;20032;-78
2023/07/16 10:19:48;;;;;;;5.32;2.00;;;;;;;;;;4958823;29;20406;-78
2023/07/16 10:22:16;;;;;;;5.20;2.03;;;;;;;;;;4953078;28;20027;-78
2023/07/16 10:24:43;;;;;;;3.95;1.55;;;;;;;;;;4940193;29;20059;-78
2023/07/16 10:27:09;;;;;;;2.85;1.70;;;;;;;;;;4944100;29;20057;-78
2023/07/16 10:29:38;;;;;;;2.85;1.45;;;;;;;;;;4945850;28;20038;-78
2023/07/16 10:32:07;;;;;;;3.70;2.00;;;;;;;;;;4952725;29;20019;-78
2023/07/16 10:34:36;;;;;;;3.58;2.00;;;;;;;;;;4940459;28;20091;-78
2023/07/16 10:37:06;;;;;;;4.32;2.08;;;;;;;;;;4950461;29;20031;-78
2023/07/16 10:39:35;;;;;;;2.57;1.60;;;;;;;;;;4955800;29;20024;-78
2023/07/16 10:42:10;;;;;;;5.20;1.73;;;;;;;;;;4959041;23;20789;-78
2023/07/16 10:44:58;;;;;;;2.58;1.63;;;;;;;;;;4967968;28;20053;-78
2023/07/16 10:47:53;;;;;;;5.43;1.85;;;;;;;;;;4955741;28;20031;-78
2023/07/16 10:53:13;;;;;;;4.22;1.90;;;;;;;;;;4949947;28;20046;-77
2023/07/16 10:55:58;;;;;;;3.80;1.85;;;;;;;;;;4953520;28;20506;-77
2023/07/16 10:58:28;;;;;;;2.50;1.45;;;;;;;;;;4955958;28;20020;-77
2023/07/16 11:00:54;;;;;;;6.97;2.08;;;;;;;;;;4954945;28;20031;-78
2023/07/16 11:03:20;;;;;;;4.00;2.33;;;;;;;;;;4955398;28;20027;-78
2023/07/16 11:05:49;;;;;;;5.35;2.00;;;;;;;;;;4954477;29;20066;-78
2023/07/16 11:08:27;;;;;;;7.63;1.95;;;;;;;;;;4954473;29;20050;-77
2023/07/16 11:10:54;;;;;;;4.88;1.70;;;;;;;;;;4958633;28;20054;-77
2023/07/16 11:13:25;;;;;;;3.55;1.88;;;;;;;;;;4974352;28;20067;-77
2023/07/16 11:15:51;;;;;;;4.28;1.98;;;;;;;;;;4966588;28;20138;-77
2023/07/16 11:18:18;;;;;;;3.58;1.85;;;;;;;;;;4972412;28;20023;-77
2023/07/16 11:20:44;;;;;;;4.13;1.98;;;;;;;;;;4972680;28;20027;-77
2023/07/16 11:23:11;;;;;;;4.97;1.65;;;;;;;;;;4972439;28;20081;-77
2023/07/16 11:25:37;;;;;;;3.30;1.52;;;;;;;;;;4974193;28;20030;-77
2023/07/16 11:28:03;;;;;;;4.35;1.58;;;;;;;;;;4972840;28;20015;-77
2023/07/16 11:30:29;;;;;;;4.25;2.22;;;;;;;;;;4974668;28;20173;-77
2023/07/16 11:32:58;;;;;;;3.72;1.67;;;;;;;;;;4973483;28;20153;-77
2023/07/16 11:35:26;;;;;;;2.85;1.83;;;;;;;;;;4974654;28;20366;-77
2023/07/16 11:37:53;;;;;;;3.53;2.03;;;;;;;;;;4946359;29;20444;-77
2023/07/16 11:40:25;;;;;;;4.13;1.85;;;;;;;;;;4968862;28;20529;-78
2023/07/16 11:42:53;;;;;;;6.50;1.77;;;;;;;;;;4974735;28;20022;-77
2023/07/16 11:45:26;;;;;;;4.38;2.63;;;;;;;;;;4957695;28;20031;-77
2023/07/16 11:47:54;;;;;;;6.07;1.90;;;;;;;;;;4953962;28;20019;-78
2023/07/16 11:50:23;;;;;;;4.05;2.10;;;;;;;;;;4961271;28;20038;-78
2023/07/16 11:52:53;;;;;;;4.03;2.10;;;;;;;;;;4957199;28;20022;-77
2023/07/16 11:55:19;;;;;;;18.55;2.15;;;;;;;;;;4974287;28;20093;-77
2023/07/16 11:57:45;;;;;;;4.43;1.88;;;;;;;;;;4975020;28;20394;-77
2023/07/16 12:00:12;;;;;;;4.00;2.05;;;;;;;;;;4974366;28;20035;-77
2023/07/16 12:02:38;;;;;;;2.60;1.83;;;;;;;;;;4972894;28;20027;-77
2023/07/16 12:05:04;;;;;;;4.82;2.15;;;;;;;;;;4975089;28;20371;-77
2023/07/16 12:07:34;;;;;;;2.30;1.50;;;;;;;;;;4963260;28;20064;-77
2023/07/16 12:10:01;;;;;;;3.53;1.92;;;;;;;;;;4974133;28;20095;-77
2023/07/16 12:12:27;;;;;;;3.78;2.00;;;;;;;;;;4973620;28;20437;-77
2023/07/16 12:14:53;;;;;;;2.67;1.77;;;;;;;;;;4971826;28;20478;-77
2023/07/16 12:17:19;;;;;;;5.03;2.20;;;;;;;;;;4967346;28;20030;-77
2023/07/16 12:19:45;;;;;;;2.58;2.00;;;;;;;;;;4966559;28;20019;-77
2023/07/16 12:22:12;;;;;;;3.42;1.77;;;;;;;;;;4978008;28;20026;-77
2023/07/16 12:24:38;;;;;;;3.75;1.73;;;;;;;;;;4980145;28;20027;-77
2023/07/16 12:27:07;;;;;;;3.97;1.90;;;;;;;;;;4965759;28;20042;-77
2023/07/16 12:29:33;;;;;;;7.55;2.08;;;;;;;;;;4962465;28;20114;-77
2023/07/16 12:31:59;;;;;;;2.33;2.13;;;;;;;;;;4977077;28;20026;-77
2023/07/16 12:34:26;;;;;;;5.45;2.20;;;;;;;;;;4970909;28;20383;-77
2023/07/16 12:36:53;;;;;;;6.03;2.22;;;;;;;;;;4957012;28;20390;-77
2023/07/16 12:39:19;;;;;;;2.95;1.88;;;;;;;;;;4965922;28;20055;-77
2023/07/16 12:41:46;;;;;;;3.40;1.85;;;;;;;;;;4971770;28;20030;-77
2023/07/16 12:44:13;;;;;;;5.07;2.40;;;;;;;;;;4959406;28;20023;-77
2023/07/16 12:46:39;;;;;;;2.85;2.00;;;;;;;;;;4970875;28;20038;-77
2023/07/16 12:49:05;;;;;;;5.00;2.15;;;;;;;;;;4971174;28;20023;-77
2023/07/16 12:51:31;;;;;;;4.68;1.85;;;;;;;;;;4973180;28;20027;-77
2023/07/16 12:53:57;;;;;;;4.65;2.05;;;;;;;;;;4957068;28;20042;-77
2023/07/16 12:56:23;;;;;;;3.00;2.00;;;;;;;;;;4973452;28;20478;-77
2023/07/16 12:58:49;;;;;;;2.72;1.65;;;;;;;;;;4973375;28;20023;-77
2023/07/16 13:01:15;;;;;;;4.03;2.20;;;;;;;;;;4973175;28;20026;-77
2023/07/16 13:03:41;;;;;;;3.35;1.92;;;;;;;;;;4973190;28;20089;-77
2023/07/16 13:06:07;;;;;;;3.42;2.22;;;;;;;;;;4973061;28;20023;-77
2023/07/16 13:08:33;;;;;;;3.55;1.90;;;;;;;;;;4972695;28;20066;-77
2023/07/16 13:10:59;;;;;;;2.88;2.17;;;;;;;;;;4973089;28;20150;-77
2023/07/16 13:13:25;;;;;;;4.35;2.55;;;;;;;;;;4969541;28;20514;-77
2023/07/16 13:15:51;;;;;;;3.88;2.05;;;;;;;;;;4964936;28;20679;-77
2023/07/16 13:18:18;;;;;;;4.43;2.13;;;;;;;;;;4972201;28;20027;-77
2023/07/16 13:20:44;;;;;;;2.30;1.90;;;;;;;;;;4972492;28;20033;-77
2023/07/16 13:23:10;;;;;;;5.57;2.13;;;;;;;;;;4972478;28;20031;-77
2023/07/16 13:25:38;;;;;;;2.45;2.10;;;;;;;;;;4972679;28;20077;-77
2023/07/16 13:28:24;;;;;;;3.55;1.77;;;;;;;;;;4972740;28;20074;-77
2023/07/16 13:30:50;;;;;;;3.45;2.33;;;;;;;;;;4972605;28;20098;-77
2023/07/16 13:33:16;;;;;;;4.20;1.80;;;;;;;;;;4972663;28;20045;-77
2023/07/16 13:35:42;;;;;;;5.45;2.60;;;;;;;;;;4970731;28;20030;-77
2023/07/16 13:38:10;;;;;;;4.53;2.35;;;;;;;;;;4958558;28;20069;-77
2023/07/16 13:40:36;;;;;;;6.18;2.85;;;;;;;;;;4971540;28;20027;-77
2023/07/16 13:43:02;;;;;;;3.15;2.08;;;;;;;;;;4975749;28;20478;-77
2023/07/16 13:45:29;;;;;;;3.70;2.50;;;;;;;;;;4975610;28;20109;-77
2023/07/16 13:47:55;;;;;;;5.60;2.22;;;;;;;;;;4968419;28;20460;-77
2023/07/16 13:50:21;;;;;;;3.95;2.33;;;;;;;;;;4975953;28;20019;-77
2023/07/16 13:52:47;;;;;;;4.65;2.45;;;;;;;;;;4965175;28;20035;-77
2023/07/16 13:55:13;;;;;;;3.63;1.90;;;;;;;;;;4970845;28;20019;-77
2023/07/16 13:57:40;;;;;;;4.07;1.98;;;;;;;;;;4974469;28;20114;-77
2023/07/16 14:00:09;;;;;;;3.33;1.92;;;;;;;;;;4976146;28;20026;-77
2023/07/16 14:02:35;;;;;;;3.58;2.00;;;;;;;;;;4960317;28;20027;-78
2023/07/16 14:05:01;;;;;;;5.07;2.25;;;;;;;;;;4974957;28;20015;-77
2023/07/16 14:07:27;;;;;;;8.55;2.08;;;;;;;;;;4965666;28;20019;-77
2023/07/16 14:09:54;;;;;;;7.07;2.50;;;;;;;;;;4955082;28;20082;-77
2023/07/16 14:12:20;;;;;;;4.75;2.13;;;;;;;;;;4963315;28;20205;-77
2023/07/16 14:14:46;;;;;;;4.25;2.25;;;;;;;;;;4955811;29;20031;-78
2023/07/16 14:17:13;;;;;;;5.18;2.33;;;;;;;;;;4971263;28;20023;-77
2023/07/16 14:19:42;;;;;;;8.55;2.55;;;;;;;;;;4959245;28;20395;-78
2023/07/16 14:22:11;;;;;;;5.40;2.55;;;;;;;;;;4960308;28;20027;-77
2023/07/16 14:24:39;;;;;;;6.28;2.80;;;;;;;;;;4974772;28;20030;-77
2023/07/16 14:27:07;;;;;;;4.65;2.03;;;;;;;;;;4960224;28;20158;-77
2023/07/16 14:29:33;;;;;;;5.30;2.38;;;;;;;;;;4975710;28;20114;-77
2023/07/16 14:31:59;;;;;;;3.40;2.33;;;;;;;;;;4975690;28;20048;-77
2023/07/16 14:34:28;;;;;;;3.65;2.00;;;;;;;;;;4974439;28;20026;-77
2023/07/16 14:36:55;;;;;;;2.85;2.20;;;;;;;;;;4963515;28;20095;-77
2023/07/16 14:39:21;;;;;;;4.55;2.10;;;;;;;;;;4962503;28;20383;-77
2023/07/16 14:41:47;;;;;;;4.60;2.42;;;;;;;;;;4957841;28;20046;-77
2023/07/16 14:44:13;;;;;;;4.18;2.00;;;;;;;;;;4952984;28;20023;-77
2023/07/16 14:46:39;;;;;;;4.20;2.10;;;;;;;;;;4965081;28;20055;-77
2023/07/16 14:49:06;;;;;;;4.95;2.50;;;;;;;;;;4970870;28;20031;-77
2023/07/16 14:51:39;;;;;;;3.80;1.88;;;;;;;;;;4955186;28;20027;-77
2023/07/16 14:54:05;;;;;;;11.00;2.58;;;;;;;;;;4967291;28;20019;-78
2023/07/16 14:56:37;;;;;;;5.45;1.65;;;;;;;;;;4957441;28;20027;-77
2023/07/16 14:59:03;;;;;;;8.30;2.65;;;;;;;;;;4971191;28;20106;-77
2023/07/16 15:01:29;;;;;;;5.32;1.70;;;;;;;;;;4962487;29;20554;-77
2023/07/16 15:03:58;;;;;;;3.33;1.95;;;;;;;;;;4964460;28;20031;-77